createdAt,value
2023-02-22T00:01:19.326Z,64.25
2023-02-22T00:06:25.010Z,65.07
2023-02-22T00:11:27.106Z,67.43
2023-02-22T00:16:30.858Z,62.47
2023-02-22T00:21:33.014Z,64.88
2023-02-22T00:26:35.103Z,67.55
2023-02-22T00:31:39.177Z,62.45
2023-02-22T00:36:48.965Z,57.80
2023-02-22T00:41:51.117Z,59.58
2023-02-22T00:46:53.384Z,60.85
2023-02-22T00:51:57.416Z,60.13
2023-02-22T00:56:59.587Z,67.60
2023-02-22T01:02:02.750Z,60.28
2023-02-22T01:07:05.051Z,60.10
2023-02-22T01:12:08.104Z,63.40
2023-02-22T01:17:10.173Z,62.22
2023-02-22T01:22:12.181Z,65.95
2023-02-22T01:27:15.572Z,61.30
2023-02-22T01:32:17.753Z,60.53
2023-02-22T01:37:19.867Z,64.50
2023-02-22T01:42:21.904Z,63.75
2023-02-22T01:47:23.954Z,73.88
2023-02-22T01:52:26.074Z,99.15
2023-02-22T01:57:33.021Z,65.05
2023-02-22T02:02:40.438Z,83.30
2023-02-22T02:07:45.448Z,137.30
2023-02-22T02:12:49.741Z,119.10
2023-02-22T02:17:54.265Z,74.25
2023-02-22T02:23:01.404Z,92.40
2023-02-22T02:28:09.505Z,88.05
2023-02-22T02:33:25.125Z,112.82
2023-02-22T02:38:43.249Z,76.80
2023-02-22T02:44:02.355Z,75.88
2023-02-22T02:49:13.309Z,94.00
2023-02-22T02:54:16.097Z,61.00
2023-02-22T02:59:33.381Z,75.05
2023-02-22T03:04:59.860Z,108.20
2023-02-22T03:10:32.101Z,119.85
2023-02-22T03:15:58.023Z,98.00
2023-02-22T03:21:31.360Z,83.47
2023-02-22T03:26:47.135Z,77.18
2023-02-22T03:32:01.279Z,109.60
2023-02-22T03:37:15.811Z,74.25
2023-02-22T03:42:24.152Z,68.28
2023-02-22T03:47:51.694Z,74.22
2023-02-22T03:52:53.964Z,58.50
2023-02-22T03:58:08.877Z,62.03
2023-02-22T04:03:11.662Z,68.97
2023-02-22T04:08:15.011Z,56.78
2023-02-22T04:13:17.208Z,69.13
2023-02-22T04:18:22.472Z,61.30
2023-02-22T04:23:26.914Z,56.78
2023-02-22T04:28:29.700Z,68.95
2023-02-22T04:33:43.575Z,50.88
2023-02-22T04:38:49.037Z,55.03
2023-02-22T04:43:51.268Z,74.35
2023-02-22T04:48:57.787Z,45.47
2023-02-22T04:54:03.642Z,46.33
2023-02-22T04:59:08.585Z,54.72
2023-02-22T05:04:12.090Z,42.40
2023-02-22T05:09:14.297Z,39.65
2023-02-22T05:14:16.423Z,40.53
2023-02-22T05:19:18.488Z,40.88
2023-02-22T05:24:20.588Z,41.75
2023-02-22T05:29:22.942Z,47.47
2023-02-22T05:34:25.051Z,48.75
2023-02-22T05:39:27.071Z,39.05
2023-02-22T05:44:29.146Z,42.10
2023-02-22T05:49:31.167Z,39.63
2023-02-22T05:54:33.293Z,38.85
2023-02-22T05:59:35.310Z,43.53
2023-02-22T06:04:37.599Z,41.60
2023-02-22T06:09:40.052Z,44.88
2023-02-22T06:14:45.996Z,40.88
2023-02-22T06:19:48.018Z,41.28
2023-02-22T06:24:50.336Z,44.33
2023-02-22T06:29:52.537Z,44.00
2023-02-22T06:34:54.680Z,43.35
2023-02-22T06:39:59.146Z,46.53
2023-02-22T06:45:02.951Z,49.25
2023-02-22T06:50:05.269Z,47.58
2023-02-22T06:55:07.559Z,44.53
2023-02-22T07:00:11.037Z,44.20
2023-02-22T07:05:13.155Z,41.67
2023-02-22T07:10:20.030Z,39.65
2023-02-22T07:15:25.065Z,37.28
2023-02-22T07:20:30.288Z,39.67
2023-02-22T07:25:32.380Z,36.22
2023-02-22T07:30:34.501Z,38.45
2023-02-22T07:35:46.480Z,39.95
2023-02-22T07:40:48.740Z,38.63
2023-02-22T07:45:53.250Z,39.80
2023-02-22T07:50:55.362Z,36.28
2023-02-22T07:55:59.936Z,36.25
2023-02-22T08:01:02.389Z,36.47
2023-02-22T08:06:07.020Z,38.92
2023-02-22T08:11:09.070Z,40.28
2023-02-22T08:16:11.229Z,39.35
2023-02-22T08:21:13.224Z,38.88
2023-02-22T08:26:17.764Z,38.42
2023-02-22T08:31:20.171Z,34.42
2023-02-22T08:36:22.466Z,36.40
2023-02-22T08:41:24.469Z,33.95
2023-02-22T08:46:26.503Z,37.22
2023-02-22T08:51:28.968Z,40.80
2023-02-22T08:56:31.008Z,40.08
2023-02-22T09:01:35.278Z,35.78
2023-02-22T09:06:41.393Z,32.10
2023-02-22T09:11:43.567Z,33.88
2023-02-22T09:16:45.728Z,31.83
2023-02-22T09:21:58.306Z,34.58
2023-02-22T09:27:01.047Z,32.88
2023-02-22T09:32:04.428Z,36.22
2023-02-22T09:37:08.689Z,35.60
2023-02-22T09:42:19.813Z,40.90
2023-02-22T09:47:39.770Z,41.97
2023-02-22T09:52:57.348Z,35.17
2023-02-22T09:58:03.036Z,35.67
2023-02-22T10:03:23.665Z,32.15
2023-02-22T10:08:31.306Z,30.87
2023-02-22T10:13:58.340Z,33.60
2023-02-22T10:19:00.417Z,29.63
2023-02-22T10:24:22.907Z,29.88
2023-02-22T10:29:44.581Z,26.52
2023-02-22T10:34:49.687Z,26.73
2023-02-22T10:39:57.213Z,24.73
2023-02-22T10:45:00.152Z,27.90
2023-02-22T10:50:02.326Z,29.20
2023-02-22T10:55:15.226Z,26.30
2023-02-22T11:00:31.268Z,24.08
2023-02-22T11:05:38.960Z,26.80
2023-02-22T11:10:43.296Z,23.88
2023-02-22T11:15:45.420Z,25.15
2023-02-22T11:20:47.659Z,24.98
2023-02-22T11:25:59.194Z,25.63
2023-02-22T11:31:15.567Z,25.73
2023-02-22T11:36:40.427Z,27.75
2023-02-22T11:41:42.541Z,24.52
2023-02-22T11:46:45.132Z,25.67
2023-02-22T11:52:28.335Z,24.05
2023-02-22T11:57:37.190Z,25.13
2023-02-22T12:03:14.357Z,21.52
2023-02-22T12:08:30.317Z,23.92
2023-02-22T12:14:02.981Z,25.55
2023-02-22T12:19:32.520Z,23.95
2023-02-22T12:24:40.306Z,24.67
2023-02-22T12:29:49.361Z,25.77
2023-02-22T12:34:57.370Z,31.65
2023-02-22T12:40:06.215Z,25.55
2023-02-22T12:45:16.886Z,24.70
2023-02-22T12:50:28.496Z,26.70
2023-02-22T12:55:45.590Z,28.65
2023-02-22T13:01:01.789Z,27.13
2023-02-22T13:06:29.410Z,26.10
2023-02-22T13:12:01.094Z,27.70
2023-02-22T13:17:41.598Z,34.17
2023-02-22T13:22:59.022Z,30.67
2023-02-22T13:28:09.828Z,33.53
2023-02-22T13:33:30.666Z,29.15
2023-02-22T13:38:45.455Z,32.50
2023-02-22T13:44:22.861Z,29.80
2023-02-22T13:49:49.689Z,30.35
2023-02-22T13:55:16.798Z,29.58
2023-02-22T14:00:24.395Z,28.45
2023-02-22T14:05:41.656Z,29.45
2023-02-22T14:10:43.743Z,30.33
2023-02-22T14:16:06.043Z,34.20
2023-02-22T14:21:19.251Z,31.65
2023-02-22T14:26:27.060Z,34.95
2023-02-22T14:31:37.915Z,33.45
2023-02-22T14:37:11.324Z,37.08
2023-02-22T14:42:21.901Z,40.15
2023-02-22T14:47:43.593Z,32.72
2023-02-22T14:52:47.519Z,34.38
2023-02-22T14:58:08.666Z,35.70
2023-02-22T15:03:38.328Z,37.10
2023-02-22T15:08:48.671Z,38.92
2023-02-22T15:13:54.064Z,40.63
2023-02-22T15:18:59.871Z,40.60
2023-02-22T15:24:07.803Z,39.00
2023-02-22T15:29:18.437Z,48.72
2023-02-22T15:34:27.146Z,42.70
2023-02-22T15:39:34.282Z,42.25
2023-02-22T15:44:43.626Z,49.80
2023-02-22T15:49:46.373Z,47.78
2023-02-22T15:54:50.977Z,48.17
2023-02-22T15:59:56.228Z,48.80
2023-02-22T16:05:01.687Z,49.30
2023-02-22T16:10:09.002Z,53.97
2023-02-22T16:15:16.084Z,55.38
2023-02-22T16:20:21.346Z,55.03
2023-02-22T16:25:27.714Z,60.47
2023-02-22T16:30:34.503Z,62.90
2023-02-22T16:35:36.668Z,69.32
2023-02-22T16:40:44.483Z,71.32
2023-02-22T16:45:47.056Z,61.85
2023-02-22T16:50:51.498Z,86.22
2023-02-22T16:56:00.548Z,92.70
2023-02-22T17:01:03.053Z,96.60
2023-02-22T17:06:05.453Z,106.05
2023-02-22T17:11:08.620Z,96.40
2023-02-22T17:16:14.461Z,88.55
2023-02-22T17:21:16.767Z,80.07
2023-02-22T17:26:19.097Z,80.15
2023-02-22T17:31:26.137Z,77.97
2023-02-22T17:36:29.463Z,71.55
2023-02-22T17:41:31.591Z,80.13
2023-02-22T17:46:35.964Z,85.60
2023-02-22T17:51:39.912Z,93.20
2023-02-22T17:56:42.517Z,89.80
2023-02-22T18:01:44.816Z,88.13
2023-02-22T18:06:46.825Z,90.13
2023-02-22T18:11:48.879Z,87.88
2023-02-22T18:16:51.227Z,81.80
2023-02-22T18:21:53.208Z,89.13
2023-02-22T18:26:55.510Z,90.32
2023-02-22T18:31:57.657Z,88.40
2023-02-22T18:36:59.724Z,83.32
2023-02-22T18:42:01.738Z,85.45
2023-02-22T18:47:03.806Z,87.97
2023-02-22T18:52:06.089Z,85.80
2023-02-22T18:57:12.070Z,90.85
2023-02-22T19:02:17.373Z,95.68
2023-02-22T19:07:21.962Z,92.30
2023-02-22T19:12:26.979Z,89.70
2023-02-22T19:17:32.159Z,90.30
2023-02-22T19:22:34.724Z,97.40
2023-02-22T19:27:36.856Z,101.35
2023-02-22T19:32:44.550Z,97.45
2023-02-22T19:37:48.028Z,104.65
2023-02-22T19:42:55.504Z,103.93
2023-02-22T19:47:57.587Z,101.40
2023-02-22T19:52:59.590Z,103.78
2023-02-22T19:58:01.639Z,112.07
2023-02-22T20:03:06.667Z,104.18
2023-02-22T20:08:08.819Z,101.88
2023-02-22T20:13:11.954Z,101.22
2023-02-22T20:18:14.000Z,106.57
2023-02-22T20:23:16.166Z,101.53
2023-02-22T20:28:18.196Z,94.15
2023-02-22T20:33:21.702Z,97.90
2023-02-22T20:38:23.945Z,98.80
2023-02-22T20:43:25.935Z,95.55
2023-02-22T20:48:28.630Z,93.90
2023-02-22T20:53:30.702Z,100.25
2023-02-22T20:58:32.908Z,98.18
2023-02-22T21:03:35.629Z,99.82
2023-02-22T21:08:37.787Z,100.55
2023-02-22T21:13:40.435Z,102.20
2023-02-22T21:18:42.801Z,99.63
2023-02-22T21:23:50.005Z,94.50
2023-02-22T21:28:52.438Z,98.10
2023-02-22T21:33:57.634Z,108.25
2023-02-22T21:39:02.001Z,104.25
2023-02-22T21:44:04.243Z,115.82
2023-02-22T21:49:06.666Z,111.97
2023-02-22T21:54:10.566Z,117.72
2023-02-22T21:59:22.454Z,114.93
2023-02-22T22:04:30.929Z,110.07
2023-02-22T22:09:33.469Z,111.75
2023-02-22T22:14:36.886Z,112.03
2023-02-22T22:19:39.361Z,110.22
2023-02-22T22:24:45.508Z,106.20
2023-02-22T22:29:47.679Z,98.53
2023-02-22T22:34:50.340Z,92.70
2023-02-22T22:39:52.688Z,95.68
2023-02-22T22:44:54.710Z,98.10
2023-02-22T22:50:01.277Z,96.85
2023-02-22T22:55:03.478Z,98.57
2023-02-22T23:00:28.876Z,97.82
2023-02-22T23:05:39.434Z,97.53
2023-02-22T23:10:41.576Z,91.93
2023-02-22T23:15:47.451Z,97.35
2023-02-22T23:20:55.140Z,97.90
2023-02-22T23:26:11.619Z,94.32
2023-02-22T23:31:17.481Z,94.22
2023-02-22T23:36:19.904Z,95.38
2023-02-22T23:41:25.186Z,99.07
2023-02-22T23:46:32.738Z,95.10
2023-02-22T23:51:41.955Z,93.75
2023-02-22T23:56:47.137Z,91.93
